createdAt,value
2018-12-14T00:00:05.036Z,68.96
2018-12-14T00:02:32.889Z,70.06
2018-12-14T00:05:00.386Z,70.69
2018-12-14T00:07:27.829Z,71.14
2018-12-14T00:09:55.339Z,71.36
2018-12-14T00:12:22.794Z,71.13
2018-12-14T00:14:50.259Z,70.78
2018-12-14T00:17:17.795Z,70.26
2018-12-14T00:19:45.276Z,70.58
2018-12-14T00:22:13.798Z,70.62
2018-12-14T00:24:41.285Z,74.85
2018-12-14T00:27:09.025Z,71.45
2018-12-14T00:29:36.511Z,69.81
2018-12-14T00:32:03.974Z,69.15
2018-12-14T00:34:31.446Z,69.32
2018-12-14T00:36:58.903Z,70.67
2018-12-14T00:39:26.400Z,71.07
2018-12-14T00:41:53.957Z,71.30
2018-12-14T00:44:21.444Z,71.88
2018-12-14T00:46:48.956Z,71.52
2018-12-14T00:49:16.413Z,71.26
2018-12-14T00:51:43.888Z,71.05
2018-12-14T00:54:11.368Z,70.74
2018-12-14T00:56:38.824Z,70.17
2018-12-14T00:59:06.415Z,74.89
2018-12-14T01:01:33.903Z,71.86
2018-12-14T01:04:01.389Z,69.88
2018-12-14T01:06:28.840Z,69.00
2018-12-14T01:08:56.283Z,70.21
2018-12-14T01:11:23.765Z,72.07
2018-12-14T01:13:51.319Z,71.92
2018-12-14T01:16:18.794Z,72.82
2018-12-14T01:18:46.270Z,71.57
2018-12-14T01:21:13.724Z,71.60
2018-12-14T01:23:41.548Z,70.95
2018-12-14T01:26:08.973Z,70.58
2018-12-14T01:28:36.461Z,69.96
2018-12-14T01:31:03.964Z,69.88
2018-12-14T01:33:31.449Z,70.64
2018-12-14T01:35:58.929Z,72.55
2018-12-14T01:38:26.360Z,70.72
2018-12-14T01:40:53.839Z,70.55
2018-12-14T01:43:21.294Z,69.94
2018-12-14T01:45:48.765Z,70.39
2018-12-14T01:48:16.220Z,70.48
2018-12-14T01:50:43.679Z,72.09
2018-12-14T01:53:11.788Z,71.70
2018-12-14T01:55:39.238Z,71.53
2018-12-14T01:58:06.744Z,71.34
2018-12-14T02:00:34.193Z,71.71
2018-12-14T02:03:01.648Z,71.52
2018-12-14T02:05:29.145Z,70.89
2018-12-14T02:07:56.603Z,70.95
2018-12-14T02:10:24.058Z,73.82
2018-12-14T02:12:51.520Z,71.50
2018-12-14T02:15:19.200Z,70.46
2018-12-14T02:17:46.691Z,70.01
2018-12-14T02:20:14.142Z,70.19
2018-12-14T02:22:42.004Z,69.90
2018-12-14T02:25:09.465Z,71.09
2018-12-14T02:27:36.930Z,70.89
2018-12-14T02:30:16.339Z,70.37
2018-12-14T02:32:43.769Z,71.29
2018-12-14T02:35:12.120Z,70.71
2018-12-14T02:37:39.679Z,70.24
2018-12-14T02:40:07.258Z,70.80
2018-12-14T02:42:34.728Z,70.22
2018-12-14T02:45:02.303Z,75.19
2018-12-14T02:47:29.770Z,70.73
2018-12-14T02:49:57.359Z,69.52
2018-12-14T02:52:24.820Z,69.80
2018-12-14T02:54:52.288Z,70.97
2018-12-14T02:57:19.780Z,70.38
2018-12-14T02:59:47.779Z,70.99
2018-12-14T03:02:15.374Z,70.53
2018-12-14T03:04:42.820Z,71.13
2018-12-14T03:07:10.316Z,71.24
2018-12-14T03:09:37.749Z,70.46
2018-12-14T03:12:05.279Z,71.03
2018-12-14T03:14:32.763Z,70.56
2018-12-14T03:17:00.449Z,71.16
2018-12-14T03:19:27.903Z,72.72
2018-12-14T03:21:55.383Z,71.52
2018-12-14T03:24:22.865Z,69.50
2018-12-14T03:26:50.305Z,69.13
2018-12-14T03:29:17.770Z,69.60
2018-12-14T03:31:45.265Z,69.54
2018-12-14T03:34:12.710Z,69.53
2018-12-14T03:36:40.155Z,70.20
2018-12-14T03:39:07.644Z,70.09
2018-12-14T03:41:35.094Z,70.86
2018-12-14T03:44:02.575Z,70.49
2018-12-14T03:49:40.291Z,69.85
2018-12-14T03:52:07.786Z,69.66
2018-12-14T03:54:35.995Z,73.88
2018-12-14T03:57:03.460Z,70.60
2018-12-14T03:59:30.941Z,69.46
2018-12-14T04:01:58.393Z,68.24
2018-12-14T04:04:25.855Z,68.67
2018-12-14T04:06:53.301Z,68.57
2018-12-14T04:09:20.777Z,69.07
2018-12-14T04:11:48.211Z,69.21
2018-12-14T04:14:15.680Z,69.17
2018-12-14T04:16:44.004Z,69.35
2018-12-14T04:19:11.460Z,70.15
2018-12-14T04:21:38.921Z,69.16
2018-12-14T04:24:06.385Z,69.38
2018-12-14T04:26:33.879Z,70.08
2018-12-14T04:29:01.349Z,72.46
2018-12-14T04:31:28.823Z,71.26
2018-12-14T04:33:56.299Z,69.42
2018-12-14T04:36:23.773Z,68.91
2018-12-14T04:38:51.254Z,68.98
2018-12-14T04:41:18.748Z,69.35
2018-12-14T04:43:46.246Z,69.24
2018-12-14T04:46:14.136Z,68.97
2018-12-14T04:48:41.621Z,69.91
2018-12-14T04:51:09.074Z,68.97
2018-12-14T04:53:36.553Z,69.28
2018-12-14T04:56:04.017Z,69.46
2018-12-14T04:58:31.472Z,69.61
2018-12-14T05:00:59.044Z,69.67
2018-12-14T05:03:26.518Z,70.88
2018-12-14T05:05:53.961Z,71.87
2018-12-14T05:08:21.438Z,69.16
2018-12-14T05:10:48.903Z,69.88
2018-12-14T05:13:16.402Z,69.34
2018-12-14T05:15:44.397Z,68.46
2018-12-14T05:18:11.896Z,69.05
2018-12-14T05:20:39.396Z,68.85
2018-12-14T05:23:06.884Z,69.06
2018-12-14T05:25:34.339Z,69.29
2018-12-14T05:28:01.788Z,70.27
2018-12-14T05:30:29.360Z,69.85
2018-12-14T05:32:56.840Z,69.37
2018-12-14T05:35:24.310Z,69.07
2018-12-14T05:37:51.806Z,70.06
2018-12-14T05:40:19.261Z,71.96
2018-12-14T05:42:46.704Z,69.47
2018-12-14T05:45:14.783Z,68.33
2018-12-14T05:47:42.222Z,68.53
2018-12-14T05:50:09.715Z,68.80
2018-12-14T05:52:37.174Z,68.76
2018-12-14T05:55:05.056Z,68.63
2018-12-14T05:57:32.519Z,68.86
2018-12-14T05:59:59.993Z,69.06
2018-12-14T06:02:27.672Z,68.76
2018-12-14T06:04:55.138Z,68.88
2018-12-14T06:07:22.628Z,69.52
2018-12-14T06:09:50.104Z,68.82
2018-12-14T06:12:17.531Z,68.34
2018-12-14T06:14:45.044Z,70.33
2018-12-14T06:17:12.485Z,69.21
2018-12-14T06:19:39.964Z,68.20
2018-12-14T06:22:07.411Z,68.00
2018-12-14T06:24:34.871Z,68.68
2018-12-14T06:27:02.338Z,68.75
2018-12-14T06:29:29.813Z,67.86
2018-12-14T06:31:57.268Z,68.28
2018-12-14T06:34:24.731Z,68.66
2018-12-14T06:36:53.719Z,68.41
2018-12-14T06:39:21.853Z,69.32
2018-12-14T06:41:49.715Z,69.38
2018-12-14T06:44:17.184Z,68.60
2018-12-14T06:46:45.429Z,67.90
2018-12-14T06:49:12.918Z,70.51
2018-12-14T06:51:40.405Z,68.09
2018-12-14T06:54:07.873Z,67.78
2018-12-14T06:56:35.362Z,67.85
2018-12-14T06:59:02.945Z,67.05
2018-12-14T07:01:30.500Z,67.13
2018-12-14T07:03:57.974Z,67.88
2018-12-14T07:06:25.470Z,67.61
2018-12-14T07:08:52.909Z,67.49
2018-12-14T07:11:20.419Z,67.89
2018-12-14T07:13:47.879Z,68.30
2018-12-14T07:16:15.740Z,68.80
2018-12-14T07:18:44.040Z,68.24
2018-12-14T07:21:11.622Z,67.64
2018-12-14T07:23:39.065Z,70.65
2018-12-14T07:26:06.523Z,68.93
2018-12-14T07:28:34.013Z,68.20
2018-12-14T07:31:01.513Z,67.83
2018-12-14T07:33:29.011Z,67.97
2018-12-14T07:35:56.484Z,67.48
2018-12-14T07:38:23.965Z,67.86
2018-12-14T07:40:51.404Z,67.70
2018-12-14T07:43:18.872Z,67.12
2018-12-14T07:45:46.424Z,67.85
2018-12-14T07:48:13.974Z,67.94
2018-12-14T07:50:41.439Z,67.61
2018-12-14T07:53:09.209Z,67.56
2018-12-14T07:55:36.922Z,68.11
2018-12-14T07:58:04.379Z,71.48
2018-12-14T08:00:31.849Z,68.33
2018-12-14T08:02:59.334Z,66.72
2018-12-14T08:05:26.798Z,67.78
2018-12-14T08:07:54.299Z,66.99
2018-12-14T08:10:22.098Z,67.59
2018-12-14T08:12:49.975Z,68.18
2018-12-14T08:15:17.738Z,68.55
2018-12-14T08:17:45.210Z,67.88
2018-12-14T08:20:17.027Z,67.67
2018-12-14T08:22:42.184Z,68.03
2018-12-14T08:25:09.750Z,68.09
2018-12-14T08:27:37.217Z,67.97
2018-12-14T08:30:06.100Z,67.43
2018-12-14T08:32:33.591Z,71.00
2018-12-14T08:35:01.052Z,68.67
2018-12-14T08:37:28.534Z,67.88
2018-12-14T08:39:56.015Z,66.55
2018-12-14T08:42:23.460Z,67.20
2018-12-14T08:44:50.935Z,66.57
2018-12-14T08:47:18.404Z,65.86
2018-12-14T08:49:46.805Z,67.12
2018-12-14T08:52:14.344Z,68.03
2018-12-14T08:54:41.865Z,67.06
2018-12-14T08:57:09.357Z,67.36
2018-12-14T08:59:36.874Z,67.42
2018-12-14T09:02:04.319Z,66.40
2018-12-14T09:04:31.770Z,66.83
2018-12-14T09:06:59.263Z,67.23
2018-12-14T09:09:26.716Z,66.93
2018-12-14T09:11:54.215Z,66.30
2018-12-14T09:14:21.718Z,65.98
2018-12-14T09:16:49.163Z,66.34
2018-12-14T09:19:16.940Z,65.76
2018-12-14T09:21:44.439Z,66.28
2018-12-14T09:24:11.898Z,66.30
2018-12-14T09:26:39.342Z,65.65
2018-12-14T09:29:07.151Z,66.03
2018-12-14T09:31:35.229Z,66.18
2018-12-14T09:34:02.714Z,66.49
2018-12-14T09:36:30.214Z,66.82
2018-12-14T09:38:57.694Z,66.57
2018-12-14T09:41:25.169Z,66.42
2018-12-14T09:43:54.522Z,66.33
2018-12-14T09:46:22.119Z,66.08
2018-12-14T09:48:49.620Z,65.85
2018-12-14T09:51:17.343Z,65.67
2018-12-14T09:53:44.774Z,64.99
2018-12-14T09:56:12.738Z,65.19
2018-12-14T09:58:40.203Z,65.49
2018-12-14T10:01:07.637Z,65.69
2018-12-14T10:03:35.332Z,64.85
2018-12-14T10:06:02.924Z,65.22
2018-12-14T10:08:30.570Z,65.15
2018-12-14T10:10:58.212Z,65.17
2018-12-14T10:13:25.877Z,64.08
2018-12-14T10:15:54.543Z,64.82
2018-12-14T10:18:22.049Z,64.37
2018-12-14T10:20:49.504Z,64.50
2018-12-14T10:23:17.665Z,67.35
2018-12-14T10:25:45.167Z,65.58
2018-12-14T10:28:12.633Z,65.63
2018-12-14T10:30:40.247Z,64.50
2018-12-14T10:33:07.720Z,64.56
2018-12-14T10:35:35.174Z,64.79
2018-12-14T10:38:02.655Z,64.71
2018-12-14T10:40:30.128Z,64.81
2018-12-14T10:42:57.630Z,64.98
2018-12-14T10:45:26.438Z,64.43
2018-12-14T10:47:53.905Z,64.60
2018-12-14T10:50:21.378Z,63.78
2018-12-14T10:52:48.933Z,63.97
2018-12-14T10:55:16.535Z,64.03
2018-12-14T10:57:44.119Z,65.11
2018-12-14T11:00:15.904Z,64.84
2018-12-14T11:02:44.012Z,62.83
2018-12-14T11:05:11.790Z,63.03
2018-12-14T11:07:39.256Z,62.75
2018-12-14T11:10:08.352Z,62.66
2018-12-14T11:12:35.844Z,63.28
2018-12-14T11:15:03.608Z,63.04
2018-12-14T11:17:31.223Z,63.51
2018-12-14T11:19:58.672Z,62.45
2018-12-14T11:22:26.139Z,62.49
2018-12-14T11:24:53.627Z,63.60
2018-12-14T11:27:21.113Z,63.15
2018-12-14T11:29:48.577Z,63.52
2018-12-14T11:32:16.068Z,62.84
2018-12-14T11:34:43.541Z,62.85
2018-12-14T11:37:11.045Z,63.12
2018-12-14T11:39:38.546Z,62.90
2018-12-14T11:42:06.049Z,63.36
2018-12-14T11:44:33.527Z,63.86
2018-12-14T11:47:01.010Z,61.55
2018-12-14T11:49:28.466Z,62.36
2018-12-14T11:51:55.954Z,63.38
2018-12-14T11:54:23.444Z,62.59
2018-12-14T11:56:50.896Z,62.80
2018-12-14T11:59:18.692Z,61.52
2018-12-14T12:01:46.282Z,62.17
2018-12-14T12:04:14.261Z,61.93
2018-12-14T12:06:41.740Z,62.60
2018-12-14T12:09:09.641Z,62.57
2018-12-14T12:11:37.154Z,63.01
2018-12-14T12:14:04.659Z,63.01
2018-12-14T12:16:32.133Z,62.10
2018-12-14T12:18:59.623Z,62.63
2018-12-14T12:21:27.379Z,62.41
2018-12-14T12:23:55.452Z,62.26
2018-12-14T12:26:23.236Z,61.95
2018-12-14T12:28:50.711Z,63.30
2018-12-14T12:31:18.903Z,60.86
2018-12-14T12:33:46.396Z,61.40
2018-12-14T12:36:13.881Z,62.30
2018-12-14T12:38:41.351Z,61.97
2018-12-14T12:41:08.872Z,61.93
2018-12-14T12:43:36.307Z,61.70
2018-12-14T12:46:03.867Z,61.65
2018-12-14T12:48:31.392Z,61.88
2018-12-14T12:51:03.128Z,62.05
2018-12-14T12:53:28.406Z,61.41
2018-12-14T12:55:55.875Z,61.76
2018-12-14T12:58:23.321Z,62.13
2018-12-14T13:00:50.808Z,62.07
2018-12-14T13:03:19.627Z,62.16
2018-12-14T13:05:47.107Z,61.99
2018-12-14T13:08:14.603Z,61.57
2018-12-14T13:10:42.092Z,62.97
2018-12-14T13:13:09.601Z,62.17
2018-12-14T13:15:37.052Z,60.86
2018-12-14T13:18:05.654Z,61.33
2018-12-14T13:20:33.392Z,62.16
2018-12-14T13:23:00.879Z,62.90
2018-12-14T13:25:28.480Z,63.31
2018-12-14T13:27:55.930Z,63.71
2018-12-14T13:30:23.408Z,61.75
2018-12-14T13:32:50.890Z,62.80
2018-12-14T13:35:18.371Z,62.47
2018-12-14T13:37:45.855Z,62.49
2018-12-14T13:40:13.445Z,61.42
2018-12-14T13:42:41.108Z,60.91
2018-12-14T13:45:08.707Z,61.32
2018-12-14T13:47:36.287Z,61.38
2018-12-14T13:50:04.781Z,61.63
2018-12-14T13:52:32.294Z,61.64
2018-12-14T13:54:59.767Z,61.43
2018-12-14T13:57:27.246Z,61.93
2018-12-14T13:59:54.747Z,61.82
2018-12-14T14:02:22.226Z,61.88
2018-12-14T14:04:49.852Z,62.16
2018-12-14T14:07:17.437Z,62.34
2018-12-14T14:09:45.106Z,61.34
2018-12-14T14:12:12.572Z,60.99
2018-12-14T14:14:40.132Z,61.19
2018-12-14T14:17:07.575Z,61.45
2018-12-14T14:19:35.255Z,61.66
2018-12-14T14:22:02.771Z,61.68
2018-12-14T14:24:30.236Z,61.77
2018-12-14T14:26:57.725Z,61.12
2018-12-14T14:29:25.177Z,61.40
2018-12-14T14:31:52.746Z,61.51
2018-12-14T14:34:20.205Z,61.87
2018-12-14T14:36:47.726Z,62.29
2018-12-14T14:39:15.181Z,62.13
2018-12-14T14:41:42.676Z,62.08
2018-12-14T14:44:10.133Z,62.38
2018-12-14T14:46:37.635Z,62.04
2018-12-14T14:49:05.056Z,62.32
2018-12-14T14:51:32.700Z,61.69
2018-12-14T14:54:00.361Z,62.40
2018-12-14T14:56:27.838Z,62.07
2018-12-14T14:58:55.296Z,62.06
2018-12-14T15:01:22.781Z,62.13
2018-12-14T15:03:50.451Z,61.71
2018-12-14T15:06:17.933Z,61.97
2018-12-14T15:08:45.436Z,61.31
2018-12-14T15:11:12.896Z,60.77
2018-12-14T15:13:40.391Z,62.83
2018-12-14T15:16:07.831Z,62.06
2018-12-14T15:18:35.342Z,61.55
2018-12-14T15:21:02.815Z,61.62
2018-12-14T15:23:30.325Z,62.21
2018-12-14T15:25:57.787Z,62.59
2018-12-14T15:28:25.283Z,63.13
2018-12-14T15:30:52.755Z,63.21
2018-12-14T15:33:20.712Z,62.70
2018-12-14T15:35:48.295Z,63.55
2018-12-14T15:38:15.906Z,62.21
2018-12-14T15:40:43.387Z,62.60
2018-12-14T15:43:10.987Z,62.96
2018-12-14T15:45:38.451Z,64.01
2018-12-14T15:48:05.959Z,62.89
2018-12-14T15:50:33.446Z,62.37
2018-12-14T15:53:01.038Z,62.27
2018-12-14T15:55:28.542Z,62.71
2018-12-14T15:57:56.007Z,62.71
2018-12-14T16:00:23.581Z,63.32
2018-12-14T16:02:51.105Z,63.00
2018-12-14T16:05:18.611Z,64.26
2018-12-14T16:07:46.116Z,63.73
2018-12-14T16:10:13.703Z,62.37
2018-12-14T16:12:41.165Z,62.24
2018-12-14T16:15:08.853Z,62.84
2018-12-14T16:17:36.627Z,61.47
2018-12-14T16:20:06.269Z,62.86
2018-12-14T16:22:33.742Z,61.79
2018-12-14T16:25:01.249Z,61.51
2018-12-14T16:27:29.671Z,61.33
2018-12-14T16:29:57.111Z,61.55
2018-12-14T16:32:24.606Z,61.78
2018-12-14T16:34:52.055Z,63.39
2018-12-14T16:37:19.621Z,62.33
2018-12-14T16:39:47.091Z,62.47
2018-12-14T16:42:14.551Z,62.09
2018-12-14T16:44:42.128Z,61.82
2018-12-14T16:47:09.611Z,61.98
2018-12-14T16:49:37.047Z,62.78
2018-12-14T16:52:04.540Z,62.33
2018-12-14T16:54:32.008Z,61.49
2018-12-14T16:56:59.512Z,61.80
2018-12-14T16:59:26.959Z,62.04
2018-12-14T17:01:54.412Z,61.36
2018-12-14T17:04:22.030Z,62.03
2018-12-14T17:06:49.520Z,62.98
2018-12-14T17:09:16.980Z,62.48
2018-12-14T17:11:44.463Z,62.13
2018-12-14T17:14:11.966Z,62.00
2018-12-14T17:16:39.438Z,61.88
2018-12-14T17:19:06.937Z,62.73
2018-12-14T17:21:34.530Z,62.87
2018-12-14T17:24:01.993Z,63.96
2018-12-14T17:26:29.545Z,62.69
2018-12-14T17:28:57.052Z,61.83
2018-12-14T17:31:25.151Z,61.48
2018-12-14T17:33:52.742Z,63.27
2018-12-14T17:36:20.268Z,61.83
2018-12-14T17:38:47.728Z,62.87
2018-12-14T17:41:15.293Z,61.47
2018-12-14T17:43:42.914Z,61.50
2018-12-14T17:46:10.392Z,61.40
2018-12-14T17:48:37.853Z,61.67
2018-12-14T17:51:05.343Z,62.90
2018-12-14T17:53:32.828Z,63.08
2018-12-14T17:56:00.293Z,63.60
2018-12-14T17:58:27.784Z,62.79
2018-12-14T18:00:58.423Z,63.23
2018-12-14T18:03:24.737Z,63.42
2018-12-14T18:05:52.323Z,62.58
2018-12-14T18:08:19.860Z,63.11
2018-12-14T18:10:47.368Z,63.05
2018-12-14T18:13:14.820Z,64.18
2018-12-14T18:15:46.385Z,64.14
2018-12-14T18:18:11.817Z,63.47
2018-12-14T18:20:39.316Z,62.90
2018-12-14T18:23:06.799Z,62.67
2018-12-14T18:25:34.477Z,62.16
2018-12-14T18:28:01.979Z,63.45
2018-12-14T18:30:29.473Z,63.14
2018-12-14T18:32:57.231Z,63.02
2018-12-14T18:35:24.705Z,65.47
2018-12-14T18:37:52.517Z,62.80
2018-12-14T18:40:19.997Z,61.42
2018-12-14T18:42:47.496Z,62.19
2018-12-14T18:45:15.116Z,61.67
2018-12-14T18:47:42.621Z,61.84
2018-12-14T18:50:10.117Z,61.98
2018-12-14T18:52:37.613Z,62.85
2018-12-14T18:55:05.065Z,62.99
2018-12-14T18:57:32.551Z,62.93
2018-12-14T19:00:00.019Z,62.61
2018-12-14T19:02:27.488Z,62.26
2018-12-14T19:04:54.967Z,62.73
2018-12-14T19:07:22.847Z,62.95
2018-12-14T19:09:50.403Z,64.02
2018-12-14T19:12:18.429Z,63.52
2018-12-14T19:14:45.945Z,62.88
2018-12-14T19:17:13.539Z,63.13
2018-12-14T19:19:41.041Z,63.54
2018-12-14T19:22:09.048Z,62.97
2018-12-14T19:24:36.558Z,63.29
2018-12-14T19:27:04.089Z,63.01
2018-12-14T19:29:31.556Z,62.71
2018-12-14T19:31:59.016Z,62.45
2018-12-14T19:34:31.356Z,62.18
2018-12-14T19:36:55.999Z,62.96
2018-12-14T19:39:23.783Z,63.31
2018-12-14T19:41:51.362Z,61.71
2018-12-14T19:44:18.852Z,62.25
2018-12-14T19:46:46.318Z,68.93
2018-12-14T19:49:13.762Z,65.10
2018-12-14T19:51:41.302Z,63.91
2018-12-14T19:54:08.768Z,63.39
2018-12-14T19:56:36.261Z,62.53
2018-12-14T19:59:03.729Z,63.10
2018-12-14T20:01:31.235Z,62.36
2018-12-14T20:03:58.693Z,62.37
2018-12-14T20:06:26.203Z,62.65
2018-12-14T20:08:54.161Z,62.85
2018-12-14T20:11:21.628Z,62.87
2018-12-14T20:13:49.093Z,63.32
2018-12-14T20:16:16.581Z,63.60
2018-12-14T20:18:44.035Z,63.74
2018-12-14T20:21:11.549Z,63.57
2018-12-14T20:23:38.998Z,63.51
2018-12-14T20:26:06.514Z,63.44
2018-12-14T20:28:34.014Z,64.11
2018-12-14T20:31:01.517Z,63.65
2018-12-14T20:33:29.000Z,64.27
2018-12-14T20:35:56.482Z,64.50
2018-12-14T20:38:23.976Z,64.50
2018-12-14T20:40:51.441Z,63.81
2018-12-14T20:43:18.937Z,63.75
2018-12-14T20:45:46.435Z,63.80
2018-12-14T20:48:13.929Z,62.99
2018-12-14T20:50:41.507Z,63.41
2018-12-14T20:53:08.999Z,66.56
2018-12-14T20:55:36.487Z,63.93
2018-12-14T20:58:04.020Z,62.49
2018-12-14T21:00:31.557Z,62.30
2018-12-14T21:02:59.142Z,61.88
2018-12-14T21:05:27.255Z,61.54
2018-12-14T21:07:54.747Z,60.16
2018-12-14T21:10:22.298Z,61.33
2018-12-14T21:12:49.792Z,61.66
2018-12-14T21:15:17.265Z,61.12
2018-12-14T21:17:44.735Z,61.42
2018-12-14T21:20:12.206Z,60.98
2018-12-14T21:22:39.687Z,60.13
2018-12-14T21:25:07.397Z,60.95
2018-12-14T21:27:34.895Z,59.82
2018-12-14T21:30:02.595Z,60.24
2018-12-14T21:32:30.072Z,60.04
2018-12-14T21:34:57.592Z,60.29
2018-12-14T21:37:25.072Z,59.93
2018-12-14T21:39:52.595Z,60.46
2018-12-14T21:42:20.175Z,60.75
2018-12-14T21:44:47.621Z,59.64
2018-12-14T21:47:15.102Z,60.30
2018-12-14T21:49:42.616Z,60.06
2018-12-14T21:52:10.156Z,59.55
2018-12-14T21:54:37.607Z,59.42
2018-12-14T21:57:05.141Z,59.42
2018-12-14T21:59:32.702Z,57.64
2018-12-14T22:02:00.145Z,57.36
2018-12-14T22:04:27.635Z,57.74
2018-12-14T22:06:55.606Z,57.55
2018-12-14T22:09:23.076Z,57.48
2018-12-14T22:11:50.573Z,57.97
2018-12-14T22:14:18.045Z,56.17
2018-12-14T22:16:45.537Z,57.78
2018-12-14T22:19:13.045Z,57.65
2018-12-14T22:21:40.719Z,57.72
2018-12-14T22:24:08.178Z,56.03
2018-12-14T22:26:35.674Z,56.68
2018-12-14T22:29:03.171Z,57.15
2018-12-14T22:31:31.116Z,57.76
2018-12-14T22:33:58.669Z,56.87
2018-12-14T22:36:26.212Z,56.59
2018-12-14T22:38:53.655Z,57.34
2018-12-14T22:41:21.332Z,57.03
2018-12-14T22:43:48.849Z,55.99
2018-12-14T22:46:16.299Z,57.11
2018-12-14T22:48:43.757Z,56.75
2018-12-14T22:51:11.263Z,56.14
2018-12-14T22:53:38.740Z,55.78
2018-12-14T22:56:06.177Z,55.81
2018-12-14T22:58:33.665Z,56.32
2018-12-14T23:01:01.321Z,56.49
2018-12-14T23:03:28.821Z,55.21
2018-12-14T23:05:56.395Z,56.01
2018-12-14T23:08:23.890Z,55.21
2018-12-14T23:10:51.324Z,55.36
2018-12-14T23:13:18.822Z,57.07
2018-12-14T23:15:46.264Z,54.68
2018-12-14T23:18:13.757Z,56.62
2018-12-14T23:20:41.217Z,56.32
2018-12-14T23:23:08.706Z,57.88
2018-12-14T23:25:36.212Z,55.93
2018-12-14T23:28:03.681Z,55.94
2018-12-14T23:30:31.171Z,55.98
2018-12-14T23:32:58.656Z,55.31
2018-12-14T23:35:26.132Z,56.21
2018-12-14T23:37:53.600Z,56.11
2018-12-14T23:40:21.050Z,54.70
2018-12-14T23:42:48.526Z,54.15
2018-12-14T23:45:15.955Z,55.21
2018-12-14T23:47:43.444Z,53.51
2018-12-14T23:50:10.964Z,53.05
2018-12-14T23:52:38.550Z,53.17
2018-12-14T23:55:06.026Z,55.07
2018-12-14T23:57:33.500Z,55.08
